createdAt,value
2023-03-06T00:01:01.375Z,1.37
2023-03-06T00:04:03.296Z,1.43
2023-03-06T00:07:05.063Z,1.45
2023-03-06T00:10:07.088Z,1.39
2023-03-06T00:13:12.422Z,1.21
2023-03-06T00:16:14.327Z,1.04
2023-03-06T00:19:16.251Z,0.63
2023-03-06T00:22:18.478Z,0.54
2023-03-06T00:25:21.610Z,0.73
2023-03-06T00:28:23.689Z,0.71
2023-03-06T00:31:25.507Z,0.77
2023-03-06T00:34:27.656Z,0.83
2023-03-06T00:37:29.501Z,0.90
2023-03-06T00:40:31.480Z,0.88
2023-03-06T00:43:33.308Z,0.94
2023-03-06T00:46:35.222Z,0.96
2023-03-06T00:49:37.301Z,0.94
2023-03-06T00:52:39.544Z,1.00
2023-03-06T00:55:44.854Z,1.02
2023-03-06T00:58:46.682Z,0.95
2023-03-06T01:01:48.577Z,0.77
2023-03-06T01:04:50.480Z,0.76
2023-03-06T01:07:52.247Z,0.81
2023-03-06T01:10:54.131Z,0.83
2023-03-06T01:13:56.076Z,0.85
2023-03-06T01:16:58.205Z,0.67
2023-03-06T01:20:01.456Z,0.71
2023-03-06T01:23:03.265Z,0.76
2023-03-06T01:26:05.531Z,0.74
2023-03-06T01:29:07.542Z,0.75
2023-03-06T01:32:09.344Z,0.78
2023-03-06T01:35:12.187Z,0.75
2023-03-06T01:38:14.412Z,0.75
2023-03-06T01:41:16.456Z,0.78
2023-03-06T01:44:18.262Z,0.81
2023-03-06T01:47:20.019Z,0.78
2023-03-06T01:50:21.893Z,0.69
2023-03-06T01:53:23.838Z,0.65
2023-03-06T01:56:25.691Z,0.65
2023-03-06T01:59:27.831Z,0.65
2023-03-06T02:02:29.800Z,0.75
2023-03-06T02:05:31.820Z,0.76
2023-03-06T02:08:33.786Z,0.83
2023-03-06T02:11:35.759Z,0.84
2023-03-06T02:14:38.694Z,0.79
2023-03-06T02:17:42.734Z,0.78
2023-03-06T02:20:48.648Z,0.82
2023-03-06T02:24:15.201Z,0.76
2023-03-06T02:27:17.648Z,0.77
2023-03-06T02:30:19.615Z,0.75
2023-03-06T02:33:24.414Z,0.70
2023-03-06T02:36:26.487Z,0.67
2023-03-06T02:39:30.296Z,0.70
2023-03-06T02:42:32.225Z,0.56
2023-03-06T02:45:39.262Z,0.52
2023-03-06T02:48:41.576Z,0.64
2023-03-06T02:51:43.318Z,0.69
2023-03-06T02:54:45.048Z,0.76
2023-03-06T02:57:46.873Z,0.82
2023-03-06T03:00:49.205Z,0.83
2023-03-06T03:03:51.084Z,0.80
2023-03-06T03:06:52.868Z,0.84
2023-03-06T03:09:54.706Z,0.76
2023-03-06T03:12:57.594Z,0.81
2023-03-06T03:16:04.072Z,0.87
2023-03-06T03:19:06.185Z,0.92
2023-03-06T03:22:08.210Z,1.00
2023-03-06T03:25:10.156Z,0.96
2023-03-06T03:28:12.016Z,1.07
2023-03-06T03:31:14.100Z,1.10
2023-03-06T03:34:16.029Z,1.16
2023-03-06T03:37:18.569Z,1.09
2023-03-06T03:40:20.622Z,1.12
2023-03-06T03:43:22.512Z,1.20
2023-03-06T03:46:24.385Z,1.23
2023-03-06T03:49:26.336Z,1.27
2023-03-06T03:52:28.186Z,1.26
2023-03-06T03:55:30.086Z,1.02
2023-03-06T03:58:32.123Z,1.11
2023-03-06T04:01:34.150Z,1.05
2023-03-06T04:04:36.028Z,1.11
2023-03-06T04:07:38.104Z,1.13
2023-03-06T04:10:45.557Z,1.15
2023-03-06T04:13:47.436Z,1.16
2023-03-06T04:16:49.244Z,1.06
2023-03-06T04:19:51.081Z,1.14
2023-03-06T04:22:52.847Z,1.19
2023-03-06T04:25:54.805Z,1.20
2023-03-06T04:28:56.865Z,1.17
2023-03-06T04:31:58.671Z,1.23
2023-03-06T04:35:00.517Z,1.27
2023-03-06T04:38:02.629Z,1.27
2023-03-06T04:41:04.469Z,1.22
2023-03-06T04:44:07.136Z,1.23
2023-03-06T04:47:09.175Z,1.27
2023-03-06T04:50:11.907Z,1.23
2023-03-06T04:53:14.644Z,1.22
2023-03-06T04:56:16.530Z,1.23
2023-03-06T04:59:18.722Z,1.21
2023-03-06T05:02:20.790Z,1.12
2023-03-06T05:05:22.624Z,1.05
2023-03-06T05:08:24.508Z,1.03
2023-03-06T05:11:26.565Z,0.94
2023-03-06T05:14:31.807Z,0.97
2023-03-06T05:17:33.886Z,0.99
2023-03-06T05:20:35.728Z,0.98
2023-03-06T05:23:41.130Z,0.96
2023-03-06T05:26:42.986Z,1.02
2023-03-06T05:29:44.941Z,1.05
2023-03-06T05:32:46.984Z,1.11
2023-03-06T05:35:49.448Z,1.15
2023-03-06T05:38:51.755Z,1.19
2023-03-06T05:41:53.952Z,1.26
2023-03-06T05:44:55.717Z,1.28
2023-03-06T05:47:57.659Z,1.29
2023-03-06T05:51:01.443Z,1.35
2023-03-06T05:54:03.176Z,1.39
2023-03-06T05:57:05.534Z,1.41
2023-03-06T06:00:09.176Z,1.44
2023-03-06T06:03:12.739Z,1.47
2023-03-06T06:06:15.607Z,1.52
2023-03-06T06:09:17.790Z,1.56
2023-03-06T06:12:19.565Z,1.56
2023-03-06T06:15:21.360Z,1.61
2023-03-06T06:18:23.225Z,1.58
2023-03-06T06:21:25.576Z,1.67
2023-03-06T06:24:27.427Z,1.69
2023-03-06T06:27:29.225Z,1.71
2023-03-06T06:30:31.871Z,1.70
2023-03-06T06:33:33.700Z,1.71
2023-03-06T06:36:35.526Z,1.69
2023-03-06T06:39:37.533Z,1.77
2023-03-06T06:42:40.375Z,1.74
2023-03-06T06:45:44.200Z,1.76
2023-03-06T06:48:52.553Z,1.88
2023-03-06T06:51:54.283Z,1.93
2023-03-06T06:54:56.136Z,1.97
2023-03-06T06:57:57.948Z,1.97
2023-03-06T07:01:10.837Z,1.96
2023-03-06T07:04:13.869Z,1.90
2023-03-06T07:07:15.672Z,1.92
2023-03-06T07:10:20.006Z,1.97
2023-03-06T07:13:22.852Z,1.98
2023-03-06T07:16:24.636Z,2.08
2023-03-06T07:19:26.545Z,2.14
2023-03-06T07:22:31.924Z,2.20
2023-03-06T07:25:38.062Z,2.25
2023-03-06T07:28:51.519Z,2.28
2023-03-06T07:31:54.420Z,2.34
2023-03-06T07:35:13.724Z,2.38
2023-03-06T07:38:18.686Z,2.35
2023-03-06T07:41:22.604Z,2.27
2023-03-06T07:44:24.522Z,2.24
2023-03-06T07:47:26.305Z,2.28
2023-03-06T07:50:28.313Z,2.29
2023-03-06T07:53:30.742Z,2.38
2023-03-06T07:56:35.047Z,2.41
2023-03-06T07:59:38.304Z,2.46
2023-03-06T08:02:41.306Z,2.43
2023-03-06T08:05:44.748Z,2.41
2023-03-06T08:08:47.797Z,2.39
2023-03-06T08:11:49.806Z,2.33
2023-03-06T08:14:51.584Z,2.15
2023-03-06T08:17:53.751Z,2.03
2023-03-06T08:21:10.513Z,1.94
2023-03-06T08:24:13.278Z,2.07
2023-03-06T08:27:15.086Z,2.14
2023-03-06T08:30:17.150Z,2.16
2023-03-06T08:33:18.935Z,2.01
2023-03-06T08:36:20.809Z,2.04
2023-03-06T08:39:23.774Z,2.18
2023-03-06T08:42:25.806Z,2.26
2023-03-06T08:45:27.672Z,2.27
2023-03-06T08:48:29.777Z,2.27
2023-03-06T08:51:31.708Z,2.24
2023-03-06T08:54:35.565Z,2.22
2023-03-06T08:57:37.553Z,2.28
2023-03-06T09:00:39.627Z,2.38
2023-03-06T09:03:41.436Z,2.33
2023-03-06T09:06:43.736Z,2.33
2023-03-06T09:09:45.503Z,2.25
2023-03-06T09:12:50.880Z,2.37
2023-03-06T09:15:54.165Z,2.31
2023-03-06T09:18:57.317Z,2.45
2023-03-06T09:22:01.104Z,2.49
2023-03-06T09:25:04.095Z,2.66
2023-03-06T09:28:11.648Z,2.72
2023-03-06T09:31:19.714Z,2.65
2023-03-06T09:34:21.586Z,2.85
2023-03-06T09:37:23.477Z,3.00
2023-03-06T09:40:39.173Z,3.12
2023-03-06T09:43:47.153Z,3.02
2023-03-06T09:47:07.174Z,3.12
2023-03-06T09:50:38.642Z,3.28
2023-03-06T09:53:46.588Z,3.41
2023-03-06T09:56:49.912Z,3.43
2023-03-06T09:59:55.333Z,3.52
2023-03-06T10:03:12.217Z,3.49
2023-03-06T10:06:30.543Z,3.36
2023-03-06T10:10:07.540Z,3.20
2023-03-06T10:13:25.384Z,3.25
2023-03-06T10:16:32.572Z,3.12
2023-03-06T10:19:36.945Z,3.26
2023-03-06T10:22:39.825Z,3.15
2023-03-06T10:26:01.289Z,3.31
2023-03-06T10:30:02.166Z,3.47
2023-03-06T10:33:22.780Z,3.19
2023-03-06T10:36:29.777Z,3.50
2023-03-06T10:39:31.722Z,3.42
2023-03-06T10:42:34.658Z,3.61
2023-03-06T10:45:49.169Z,3.74
2023-03-06T10:48:58.763Z,3.77
2023-03-06T10:52:00.696Z,3.73
2023-03-06T10:55:22.716Z,3.72
2023-03-06T10:58:30.043Z,3.93
2023-03-06T11:01:31.950Z,3.77
2023-03-06T11:04:35.641Z,3.79
2023-03-06T11:08:02.057Z,4.06
2023-03-06T11:11:10.535Z,4.38
2023-03-06T11:14:18.429Z,4.33
2023-03-06T11:17:28.514Z,4.21
2023-03-06T11:20:50.059Z,4.43
2023-03-06T11:23:54.448Z,4.58
2023-03-06T11:27:02.046Z,4.78
2023-03-06T11:30:06.194Z,4.41
2023-03-06T11:33:16.774Z,4.64
2023-03-06T11:36:38.953Z,4.66
2023-03-06T11:39:49.419Z,4.64
2023-03-06T11:43:02.629Z,4.74
2023-03-06T11:46:27.898Z,4.65
2023-03-06T11:49:35.026Z,4.49
2023-03-06T11:52:43.130Z,4.63
2023-03-06T11:56:03.764Z,4.51
2023-03-06T11:59:14.936Z,4.64
2023-03-06T12:02:31.889Z,4.60
2023-03-06T12:05:38.202Z,4.69
2023-03-06T12:08:43.508Z,4.62
2023-03-06T12:12:04.106Z,4.76
2023-03-06T12:15:08.862Z,4.80
2023-03-06T12:18:32.255Z,4.59
2023-03-06T12:21:42.207Z,4.65
2023-03-06T12:25:26.916Z,4.67
2023-03-06T12:28:51.450Z,4.57
2023-03-06T12:32:04.809Z,4.67
2023-03-06T12:35:49.052Z,4.74
2023-03-06T12:39:01.447Z,4.72
2023-03-06T12:42:22.642Z,4.60
2023-03-06T12:45:34.702Z,4.49
2023-03-06T12:48:37.567Z,4.50
2023-03-06T12:51:39.971Z,4.71
2023-03-06T12:54:41.958Z,4.60
2023-03-06T12:57:43.911Z,4.69
2023-03-06T13:01:06.009Z,4.77
2023-03-06T13:04:26.629Z,4.83
2023-03-06T13:07:52.803Z,4.74
2023-03-06T13:11:23.840Z,4.72
2023-03-06T13:14:54.562Z,4.71
2023-03-06T13:17:57.360Z,4.70
2023-03-06T13:20:59.418Z,4.83
2023-03-06T13:24:05.533Z,4.90
2023-03-06T13:27:09.959Z,4.76
2023-03-06T13:30:36.702Z,4.97
2023-03-06T13:33:38.727Z,5.04
2023-03-06T13:36:40.591Z,5.05
2023-03-06T13:39:54.886Z,4.84
2023-03-06T13:43:03.378Z,5.01
2023-03-06T13:46:19.321Z,5.10
2023-03-06T13:49:24.151Z,5.00
2023-03-06T13:52:38.446Z,4.98
2023-03-06T13:56:18.341Z,4.86
2023-03-06T13:59:31.983Z,4.80
2023-03-06T14:02:58.174Z,4.77
2023-03-06T14:06:00.053Z,4.87
2023-03-06T14:09:07.095Z,4.86
2023-03-06T14:12:19.056Z,4.79
2023-03-06T14:15:25.694Z,4.95
2023-03-06T14:18:47.232Z,4.88
2023-03-06T14:21:56.747Z,4.88
2023-03-06T14:25:05.652Z,4.89
2023-03-06T14:28:21.909Z,4.93
2023-03-06T14:31:36.388Z,4.97
2023-03-06T14:34:45.907Z,4.82
2023-03-06T14:37:53.238Z,4.83
2023-03-06T14:40:55.536Z,4.86
2023-03-06T14:44:19.342Z,4.83
2023-03-06T14:47:26.715Z,4.69
2023-03-06T14:50:34.291Z,4.78
2023-03-06T14:53:36.103Z,4.67
2023-03-06T14:56:42.112Z,4.78
2023-03-06T14:59:49.211Z,4.57
2023-03-06T15:02:51.881Z,4.63
2023-03-06T15:05:54.536Z,4.67
2023-03-06T15:09:07.932Z,4.75
2023-03-06T15:12:22.760Z,4.72
2023-03-06T15:15:28.440Z,4.66
2023-03-06T15:18:36.170Z,4.66
2023-03-06T15:21:38.447Z,4.70
2023-03-06T15:24:40.277Z,4.63
2023-03-06T15:27:54.576Z,4.74
2023-03-06T15:31:19.981Z,4.69
2023-03-06T15:34:25.875Z,4.75
2023-03-06T15:37:28.892Z,4.77
2023-03-06T15:40:31.858Z,4.70
2023-03-06T15:43:40.018Z,4.58
2023-03-06T15:46:42.052Z,4.52
2023-03-06T15:49:43.943Z,4.59
2023-03-06T15:52:46.432Z,4.53
2023-03-06T15:55:49.246Z,4.57
2023-03-06T15:58:51.460Z,4.48
2023-03-06T16:01:54.170Z,4.39
2023-03-06T16:04:56.193Z,4.31
2023-03-06T16:07:57.939Z,4.48
2023-03-06T16:11:00.061Z,4.53
2023-03-06T16:14:02.036Z,4.46
2023-03-06T16:17:04.113Z,4.39
2023-03-06T16:20:09.056Z,4.27
2023-03-06T16:23:11.289Z,4.29
2023-03-06T16:26:34.410Z,4.21
2023-03-06T16:29:36.668Z,4.21
2023-03-06T16:32:39.316Z,4.19
2023-03-06T16:35:44.402Z,4.32
2023-03-06T16:38:48.084Z,4.25
2023-03-06T16:41:50.537Z,4.35
2023-03-06T16:44:52.512Z,4.35
2023-03-06T16:47:54.540Z,4.35
2023-03-06T16:50:59.060Z,4.31
2023-03-06T16:54:00.927Z,4.31
2023-03-06T16:57:02.737Z,4.30
2023-03-06T17:00:06.661Z,4.28
2023-03-06T17:03:08.817Z,4.26
2023-03-06T17:06:18.978Z,4.09
2023-03-06T17:09:20.757Z,4.13
2023-03-06T17:12:22.870Z,4.03
2023-03-06T17:15:24.670Z,4.02
2023-03-06T17:18:27.873Z,3.96
2023-03-06T17:21:30.449Z,3.92
2023-03-06T17:24:32.555Z,3.98
2023-03-06T17:27:34.918Z,3.97
2023-03-06T17:30:37.201Z,3.86
2023-03-06T17:33:39.169Z,3.83
2023-03-06T17:36:40.967Z,3.82
2023-03-06T17:39:43.111Z,3.86
2023-03-06T17:42:45.136Z,3.85
2023-03-06T17:45:50.133Z,3.78
2023-03-06T17:48:52.201Z,3.66
2023-03-06T17:51:56.446Z,3.66
2023-03-06T17:54:58.195Z,3.61
2023-03-06T17:58:00.167Z,3.62
2023-03-06T18:01:12.986Z,3.63
2023-03-06T18:04:15.040Z,3.61
2023-03-06T18:07:16.871Z,3.53
2023-03-06T18:10:18.968Z,3.44
2023-03-06T18:13:22.206Z,3.42
2023-03-06T18:16:26.567Z,3.50
2023-03-06T18:19:28.375Z,3.51
2023-03-06T18:22:30.620Z,3.45
2023-03-06T18:25:32.636Z,3.51
2023-03-06T18:28:34.803Z,3.49
2023-03-06T18:31:39.055Z,3.45
2023-03-06T18:34:41.014Z,3.38
2023-03-06T18:37:44.260Z,3.14
2023-03-06T18:40:46.894Z,3.21
2023-03-06T18:43:53.602Z,3.23
2023-03-06T18:46:55.824Z,3.24
2023-03-06T18:49:58.120Z,3.25
2023-03-06T18:53:00.473Z,3.25
2023-03-06T18:56:03.384Z,3.06
2023-03-06T18:59:06.951Z,3.09
2023-03-06T19:02:10.654Z,2.88
2023-03-06T19:05:13.895Z,2.76
2023-03-06T19:08:17.538Z,2.82
2023-03-06T19:11:19.866Z,2.76
2023-03-06T19:14:22.067Z,2.65
2023-03-06T19:17:25.054Z,2.49
2023-03-06T19:20:27.532Z,2.61
2023-03-06T19:23:30.099Z,2.60
2023-03-06T19:26:32.914Z,2.62
2023-03-06T19:29:35.244Z,2.59
2023-03-06T19:32:37.485Z,2.66
2023-03-06T19:35:39.760Z,2.67
2023-03-06T19:38:42.295Z,2.66
2023-03-06T19:41:46.450Z,2.66
2023-03-06T19:44:49.102Z,2.63
2023-03-06T19:47:53.715Z,2.51
2023-03-06T19:50:56.334Z,2.41
2023-03-06T19:54:00.244Z,2.39
2023-03-06T19:57:02.487Z,2.37
2023-03-06T20:00:05.224Z,2.33
2023-03-06T20:03:07.428Z,2.27
2023-03-06T20:06:18.560Z,2.24
2023-03-06T20:09:20.643Z,2.21
2023-03-06T20:12:22.851Z,2.14
2023-03-06T20:15:26.199Z,2.10
2023-03-06T20:18:28.564Z,2.06
2023-03-06T20:21:33.808Z,2.04
2023-03-06T20:24:35.848Z,1.99
2023-03-06T20:27:38.135Z,1.96
2023-03-06T20:30:39.894Z,1.89
2023-03-06T20:33:42.324Z,1.86
2023-03-06T20:36:44.497Z,1.78
2023-03-06T20:39:47.902Z,1.58
2023-03-06T20:42:49.893Z,1.48
2023-03-06T20:45:59.467Z,1.52
2023-03-06T20:49:01.993Z,1.54
2023-03-06T20:52:04.321Z,1.50
2023-03-06T20:55:07.670Z,1.39
2023-03-06T20:58:09.897Z,1.39
2023-03-06T21:01:26.236Z,1.24
2023-03-06T21:04:28.342Z,1.18
2023-03-06T21:07:30.287Z,1.20
2023-03-06T21:10:32.129Z,1.28
2023-03-06T21:13:34.134Z,1.06
2023-03-06T21:16:36.278Z,1.02
2023-03-06T21:19:38.623Z,1.15
2023-03-06T21:22:40.708Z,1.20
2023-03-06T21:25:52.337Z,1.03
2023-03-06T21:28:54.792Z,1.16
2023-03-06T21:31:57.516Z,1.21
2023-03-06T21:34:59.447Z,1.18
2023-03-06T21:38:01.283Z,1.22
2023-03-06T21:41:35.621Z,1.22
2023-03-06T21:44:37.370Z,1.23
2023-03-06T21:47:40.946Z,1.24
2023-03-06T21:50:42.884Z,1.25
2023-03-06T21:53:45.392Z,1.25
2023-03-06T21:56:47.231Z,1.24
2023-03-06T21:59:49.019Z,1.22
2023-03-06T22:02:50.893Z,1.21
2023-03-06T22:05:52.822Z,1.03
2023-03-06T22:08:55.924Z,0.90
2023-03-06T22:11:58.273Z,0.94
2023-03-06T22:15:00.102Z,1.00
2023-03-06T22:18:01.805Z,0.98
2023-03-06T22:21:12.373Z,0.96
2023-03-06T22:24:14.122Z,0.95
2023-03-06T22:27:15.952Z,0.75
2023-03-06T22:30:17.961Z,0.64
2023-03-06T22:33:19.795Z,0.55
2023-03-06T22:36:22.702Z,0.61
2023-03-06T22:39:24.506Z,0.66
2023-03-06T22:42:26.220Z,0.59
2023-03-06T22:45:28.007Z,0.70
2023-03-06T22:48:30.079Z,0.75
2023-03-06T22:51:31.920Z,0.78
2023-03-06T22:54:33.740Z,0.82
2023-03-06T22:57:35.517Z,0.86
2023-03-06T23:00:37.426Z,0.90
2023-03-06T23:03:49.546Z,0.83
2023-03-06T23:06:51.322Z,0.90
2023-03-06T23:09:53.086Z,0.95
2023-03-06T23:12:54.861Z,0.95
2023-03-06T23:15:56.743Z,0.99
2023-03-06T23:18:58.761Z,1.04
2023-03-06T23:22:00.533Z,1.06
2023-03-06T23:25:02.392Z,1.03
2023-03-06T23:28:04.260Z,0.92
2023-03-06T23:31:08.168Z,0.79
2023-03-06T23:34:11.525Z,0.70
2023-03-06T23:37:13.342Z,0.58
2023-03-06T23:40:15.156Z,0.70
2023-03-06T23:43:16.885Z,0.55
2023-03-06T23:46:18.784Z,0.38
2023-03-06T23:49:21.979Z,0.37
2023-03-06T23:52:23.955Z,0.26
2023-03-06T23:55:26.132Z,0.26
2023-03-06T23:58:28.531Z,0.33
